createdAt,value
2018-09-06T00:01:43.000Z,14.37
2018-09-06T00:04:10.851Z,15.33
2018-09-06T00:06:38.717Z,15.23
2018-09-06T00:09:07.543Z,14.70
2018-09-06T00:11:35.529Z,15.20
2018-09-06T00:14:03.646Z,15.07
2018-09-06T00:16:31.454Z,16.27
2018-09-06T00:18:59.382Z,15.10
2018-09-06T00:21:27.272Z,15.97
2018-09-06T00:23:55.110Z,15.67
2018-09-06T00:26:23.109Z,16.33
2018-09-06T00:28:50.958Z,16.97
2018-09-06T00:31:18.820Z,15.30
2018-09-06T00:33:46.699Z,14.77
2018-09-06T00:36:14.546Z,14.40
2018-09-06T00:38:42.526Z,14.77
2018-09-06T00:41:10.394Z,14.83
2018-09-06T00:43:38.291Z,14.50
2018-09-06T00:46:06.034Z,14.50
2018-09-06T00:48:33.908Z,14.90
2018-09-06T00:51:01.841Z,15.97
2018-09-06T00:53:29.634Z,16.43
2018-09-06T00:55:57.566Z,15.77
2018-09-06T00:58:25.361Z,15.93
2018-09-06T01:00:53.259Z,15.63
2018-09-06T01:03:21.037Z,14.43
2018-09-06T01:05:48.905Z,16.93
2018-09-06T01:08:16.720Z,14.90
2018-09-06T01:10:44.615Z,15.03
2018-09-06T01:13:12.459Z,14.13
2018-09-06T01:15:40.357Z,14.30
2018-09-06T01:18:08.227Z,14.30
2018-09-06T01:20:36.085Z,15.40
2018-09-06T01:23:03.988Z,15.10
2018-09-06T01:25:36.937Z,13.97
2018-09-06T01:28:04.783Z,14.97
2018-09-06T01:30:32.702Z,14.33
2018-09-06T01:33:00.530Z,15.10
2018-09-06T01:35:28.423Z,15.10
2018-09-06T01:37:56.258Z,15.40
2018-09-06T01:40:24.172Z,15.70
2018-09-06T01:42:51.998Z,14.80
2018-09-06T01:45:19.949Z,15.17
2018-09-06T01:47:47.839Z,15.63
2018-09-06T01:50:15.701Z,15.33
2018-09-06T01:52:43.557Z,14.97
2018-09-06T01:55:11.428Z,15.10
2018-09-06T01:57:39.441Z,14.87
2018-09-06T02:00:07.293Z,14.10
2018-09-06T02:02:35.141Z,14.50
2018-09-06T02:05:03.030Z,14.17
2018-09-06T02:07:30.887Z,14.50
2018-09-06T02:09:58.755Z,13.83
2018-09-06T02:12:26.622Z,13.17
2018-09-06T02:14:54.463Z,11.80
2018-09-06T02:17:22.341Z,13.03
2018-09-06T02:19:50.201Z,14.37
2018-09-06T02:22:18.066Z,15.07
2018-09-06T02:24:45.940Z,14.63
2018-09-06T02:27:13.795Z,13.10
2018-09-06T02:29:41.694Z,14.93
2018-09-06T02:32:09.546Z,14.93
2018-09-06T02:34:37.431Z,14.80
2018-09-06T02:37:05.285Z,14.50
2018-09-06T02:39:33.131Z,14.20
2018-09-06T02:42:01.024Z,15.20
2018-09-06T02:44:28.889Z,14.37
2018-09-06T02:46:56.773Z,14.67
2018-09-06T02:49:29.666Z,15.93
2018-09-06T02:51:57.497Z,15.53
2018-09-06T02:54:25.511Z,14.63
2018-09-06T02:56:53.352Z,14.60
2018-09-06T02:59:21.322Z,13.43
2018-09-06T03:01:49.152Z,14.20
2018-09-06T03:04:16.950Z,14.27
2018-09-06T03:06:44.882Z,13.87
2018-09-06T03:09:12.689Z,14.90
2018-09-06T03:11:45.675Z,14.53
2018-09-06T03:14:13.839Z,15.10
2018-09-06T03:16:41.745Z,13.00
2018-09-06T03:19:09.614Z,15.37
2018-09-06T03:21:37.441Z,13.70
2018-09-06T03:24:05.347Z,14.50
2018-09-06T03:26:33.174Z,13.80
2018-09-06T03:29:01.103Z,13.23
2018-09-06T03:31:28.906Z,13.40
2018-09-06T03:33:56.790Z,14.47
2018-09-06T03:36:24.637Z,15.20
2018-09-06T03:38:52.508Z,13.50
2018-09-06T03:41:20.371Z,14.90
2018-09-06T03:43:48.188Z,15.50
2018-09-06T03:46:16.029Z,14.23
2018-09-06T03:48:43.867Z,13.77
2018-09-06T03:51:11.664Z,13.50
2018-09-06T03:53:39.539Z,14.40
2018-09-06T03:56:07.356Z,13.73
2018-09-06T03:58:35.228Z,15.60
2018-09-06T04:01:03.773Z,14.97
2018-09-06T04:03:31.602Z,14.80
2018-09-06T04:05:59.455Z,14.00
2018-09-06T04:08:27.321Z,14.57
2018-09-06T04:10:55.324Z,14.80
2018-09-06T04:13:23.174Z,15.10
2018-09-06T04:15:51.041Z,15.40
2018-09-06T04:18:18.754Z,14.93
2018-09-06T04:20:46.355Z,14.60
2018-09-06T04:23:14.371Z,15.30
2018-09-06T04:25:42.273Z,15.57
2018-09-06T04:28:10.062Z,14.67
2018-09-06T04:30:38.005Z,15.40
2018-09-06T04:33:05.903Z,15.77
2018-09-06T04:35:33.796Z,14.27
2018-09-06T04:38:01.624Z,15.17
2018-09-06T04:40:29.406Z,15.67
2018-09-06T04:42:57.259Z,15.60
2018-09-06T04:45:25.126Z,16.03
2018-09-06T04:47:52.999Z,15.40
2018-09-06T04:50:20.885Z,14.43
2018-09-06T04:52:48.742Z,15.87
2018-09-06T04:55:16.616Z,13.73
2018-09-06T04:57:44.621Z,14.83
2018-09-06T05:00:12.449Z,15.57
2018-09-06T05:02:40.330Z,14.50
2018-09-06T05:05:08.172Z,15.43
2018-09-06T05:07:36.058Z,14.67
2018-09-06T05:10:03.914Z,15.70
2018-09-06T05:12:31.685Z,13.80
2018-09-06T05:14:59.584Z,14.60
2018-09-06T05:17:27.431Z,13.93
2018-09-06T05:19:55.190Z,16.03
2018-09-06T05:22:23.045Z,14.33
2018-09-06T05:24:51.010Z,16.97
2018-09-06T05:27:19.028Z,15.00
2018-09-06T05:29:46.957Z,16.87
2018-09-06T05:32:14.721Z,16.10
2018-09-06T05:34:42.732Z,16.73
2018-09-06T05:37:10.650Z,17.73
2018-09-06T05:39:38.544Z,16.33
2018-09-06T05:42:06.412Z,17.53
2018-09-06T05:44:34.423Z,17.73
2018-09-06T05:47:02.240Z,17.77
2018-09-06T05:49:30.085Z,16.87
2018-09-06T05:51:58.192Z,17.80
2018-09-06T05:54:26.032Z,17.73
2018-09-06T05:56:53.901Z,18.13
2018-09-06T05:59:21.799Z,17.67
2018-09-06T06:01:49.662Z,17.70
2018-09-06T06:04:17.557Z,17.57
2018-09-06T06:06:45.369Z,16.37
2018-09-06T06:09:13.217Z,18.37
2018-09-06T06:11:41.198Z,16.43
2018-09-06T06:14:08.962Z,16.90
2018-09-06T06:16:36.833Z,17.70
2018-09-06T06:19:04.722Z,17.10
2018-09-06T06:21:32.612Z,16.83
2018-09-06T06:24:00.456Z,16.63
2018-09-06T06:26:28.333Z,17.90
2018-09-06T06:28:56.179Z,17.00
2018-09-06T06:31:24.066Z,18.57
2018-09-06T06:33:51.929Z,18.60
2018-09-06T06:36:19.780Z,17.03
2018-09-06T06:38:47.637Z,18.70
2018-09-06T06:41:15.545Z,18.23
2018-09-06T06:43:43.399Z,19.20
2018-09-06T06:46:12.094Z,19.17
2018-09-06T06:48:39.933Z,17.93
2018-09-06T06:51:16.799Z,19.10
2018-09-06T06:53:53.658Z,18.97
2018-09-06T06:56:30.321Z,18.33
2018-09-06T06:58:57.893Z,19.50
2018-09-06T07:01:25.525Z,18.30
2018-09-06T07:03:53.130Z,16.60
2018-09-06T07:06:20.760Z,24.03
2018-09-06T07:08:48.356Z,18.07
2018-09-06T07:11:15.975Z,15.90
2018-09-06T07:13:43.581Z,15.30
2018-09-06T07:16:11.182Z,15.80
2018-09-06T07:18:38.825Z,16.50
2018-09-06T07:21:06.440Z,16.07
2018-09-06T07:23:34.059Z,15.73
2018-09-06T07:26:01.642Z,16.40
2018-09-06T07:28:29.238Z,15.40
2018-09-06T07:30:56.859Z,16.07
2018-09-06T07:33:24.435Z,16.17
2018-09-06T07:35:52.005Z,15.93
2018-09-06T07:38:19.637Z,16.00
2018-09-06T07:40:47.206Z,15.57
2018-09-06T07:43:14.796Z,15.63
2018-09-06T07:45:42.740Z,16.27
2018-09-06T07:48:10.381Z,16.23
2018-09-06T07:50:37.977Z,14.50
2018-09-06T07:53:15.757Z,15.27
2018-09-06T07:55:53.526Z,14.67
2018-09-06T07:58:30.282Z,14.27
2018-09-06T08:00:58.017Z,16.00
2018-09-06T08:03:25.904Z,15.67
2018-09-06T08:05:53.777Z,15.50
2018-09-06T08:08:21.559Z,16.13
2018-09-06T08:10:49.222Z,15.43
2018-09-06T08:13:16.845Z,15.03
2018-09-06T08:15:44.454Z,15.10
2018-09-06T08:18:12.043Z,15.10
2018-09-06T08:20:39.988Z,15.30
2018-09-06T08:23:07.878Z,15.20
2018-09-06T08:25:35.480Z,14.43
2018-09-06T08:28:03.111Z,17.53
2018-09-06T08:30:30.805Z,15.40
2018-09-06T08:32:58.408Z,16.30
2018-09-06T08:35:26.026Z,15.40
2018-09-06T08:37:53.661Z,14.33
2018-09-06T08:40:21.303Z,14.27
2018-09-06T08:42:48.942Z,12.60
2018-09-06T08:45:16.627Z,18.40
2018-09-06T08:47:44.267Z,15.53
2018-09-06T08:50:22.546Z,14.27
2018-09-06T08:53:00.201Z,14.20
2018-09-06T08:55:37.338Z,15.70
2018-09-06T08:58:04.960Z,14.90
2018-09-06T09:00:36.566Z,14.77
2018-09-06T09:03:04.530Z,14.90
2018-09-06T09:05:32.162Z,14.40
2018-09-06T09:07:59.764Z,14.03
2018-09-06T09:10:27.408Z,14.03
2018-09-06T09:12:55.065Z,13.97
2018-09-06T09:15:22.662Z,12.93
2018-09-06T09:17:50.254Z,12.20
2018-09-06T09:20:17.833Z,12.77
2018-09-06T09:22:55.325Z,13.40
2018-09-06T09:25:32.803Z,12.60
2018-09-06T09:28:09.334Z,13.00
2018-09-06T09:30:36.985Z,12.33
2018-09-06T09:33:04.671Z,13.20
2018-09-06T09:35:32.287Z,12.00
2018-09-06T09:38:00.955Z,11.73
2018-09-06T09:40:28.788Z,11.50
2018-09-06T09:42:56.427Z,12.47
2018-09-06T09:45:24.016Z,12.00
2018-09-06T09:47:51.621Z,12.40
2018-09-06T09:52:46.076Z,11.17
2018-09-06T09:55:13.727Z,11.17
2018-09-06T09:57:41.346Z,11.00
2018-09-06T10:00:08.987Z,12.23
2018-09-06T10:02:42.047Z,11.30
2018-09-06T10:05:14.894Z,12.03
2018-09-06T10:07:47.748Z,12.90
2018-09-06T10:10:15.306Z,11.60
2018-09-06T10:12:42.936Z,12.90
2018-09-06T10:15:10.536Z,12.77
2018-09-06T10:17:38.186Z,12.80
2018-09-06T10:20:05.846Z,12.00
2018-09-06T10:22:33.500Z,12.27
2018-09-06T10:25:01.107Z,12.50
2018-09-06T10:27:28.744Z,11.67
2018-09-06T10:29:56.370Z,12.50
2018-09-06T10:32:23.970Z,12.47
2018-09-06T10:34:51.608Z,12.33
2018-09-06T10:37:19.193Z,12.40
2018-09-06T10:39:46.811Z,12.23
2018-09-06T10:42:14.407Z,11.63
2018-09-06T10:44:41.990Z,12.80
2018-09-06T10:47:09.565Z,12.97
2018-09-06T10:49:37.137Z,11.30
2018-09-06T10:52:04.771Z,12.50
2018-09-06T10:54:32.404Z,11.77
2018-09-06T10:56:59.982Z,11.73
2018-09-06T10:59:28.165Z,11.60
2018-09-06T11:01:55.779Z,12.03
2018-09-06T11:04:23.353Z,11.47
2018-09-06T11:06:51.009Z,11.17
2018-09-06T11:09:18.633Z,11.40
2018-09-06T11:11:46.289Z,11.43
2018-09-06T11:14:13.885Z,11.80
2018-09-06T11:16:41.634Z,11.37
2018-09-06T11:19:09.216Z,10.50
2018-09-06T11:21:36.977Z,11.33
2018-09-06T11:24:04.581Z,11.10
2018-09-06T11:26:32.131Z,11.50
2018-09-06T11:28:59.718Z,10.93
2018-09-06T11:31:27.354Z,11.30
2018-09-06T11:33:54.945Z,11.37
2018-09-06T11:36:22.548Z,11.63
2018-09-06T11:38:50.171Z,12.87
2018-09-06T11:41:17.764Z,12.50
2018-09-06T11:43:45.383Z,12.77
2018-09-06T11:46:12.994Z,11.70
2018-09-06T11:48:40.591Z,13.40
2018-09-06T11:51:08.750Z,12.87
2018-09-06T11:53:36.337Z,12.43
2018-09-06T11:56:03.948Z,12.77
2018-09-06T11:58:32.824Z,13.20
2018-09-06T12:01:00.476Z,12.20
2018-09-06T12:03:28.209Z,12.50
2018-09-06T12:05:55.820Z,12.80
2018-09-06T12:08:23.442Z,11.80
2018-09-06T12:10:51.077Z,11.20
2018-09-06T12:13:18.801Z,12.73
2018-09-06T12:15:46.464Z,13.20
2018-09-06T12:18:14.093Z,13.13
2018-09-06T12:20:50.737Z,12.73
2018-09-06T12:23:28.722Z,11.77
2018-09-06T12:26:06.484Z,12.23
2018-09-06T12:28:34.166Z,12.23
2018-09-06T12:31:01.872Z,12.80
2018-09-06T12:33:29.631Z,14.07
2018-09-06T12:35:57.378Z,12.97
2018-09-06T12:38:25.032Z,13.40
2018-09-06T12:40:52.667Z,13.60
2018-09-06T12:43:20.377Z,13.00
2018-09-06T12:45:48.067Z,13.77
2018-09-06T12:48:15.717Z,12.70
2018-09-06T12:50:43.339Z,13.27
2018-09-06T12:53:11.877Z,12.20
2018-09-06T12:55:39.497Z,12.67
2018-09-06T12:58:07.094Z,13.50
2018-09-06T13:00:34.757Z,13.47
2018-09-06T13:03:02.376Z,14.07
2018-09-06T13:05:29.986Z,14.10
2018-09-06T13:07:57.642Z,15.30
2018-09-06T13:10:25.244Z,13.00
2018-09-06T13:12:52.839Z,13.53
2018-09-06T13:15:20.440Z,13.90
2018-09-06T13:17:48.084Z,12.70
2018-09-06T13:20:15.665Z,13.30
2018-09-06T13:22:43.303Z,13.50
2018-09-06T13:25:10.872Z,13.70
2018-09-06T13:27:38.494Z,14.10
2018-09-06T13:30:06.163Z,12.77
2018-09-06T13:32:33.761Z,11.97
2018-09-06T13:35:01.432Z,13.27
2018-09-06T13:37:29.028Z,12.90
2018-09-06T13:39:56.708Z,13.20
2018-09-06T13:42:24.364Z,12.10
2018-09-06T13:44:51.956Z,13.03
2018-09-06T13:47:19.556Z,12.17
2018-09-06T13:49:47.149Z,13.37
2018-09-06T13:52:14.751Z,12.27
2018-09-06T13:54:42.352Z,12.70
2018-09-06T13:57:09.957Z,12.90
2018-09-06T13:59:37.564Z,12.40
2018-09-06T14:02:05.242Z,12.27
2018-09-06T14:04:32.845Z,13.70
2018-09-06T14:07:00.453Z,12.37
2018-09-06T14:09:28.131Z,12.63
2018-09-06T14:11:55.756Z,11.93
2018-09-06T14:14:23.418Z,12.83
2018-09-06T14:16:51.072Z,12.73
2018-09-06T14:19:18.614Z,13.20
2018-09-06T14:21:46.231Z,12.10
2018-09-06T14:24:13.941Z,12.20
2018-09-06T14:26:41.513Z,12.30
2018-09-06T14:29:09.130Z,12.17
2018-09-06T14:31:36.769Z,11.97
2018-09-06T14:34:04.353Z,11.27
2018-09-06T14:36:31.939Z,12.27
2018-09-06T14:38:59.816Z,12.40
2018-09-06T14:41:27.426Z,11.87
2018-09-06T14:43:55.035Z,13.17
2018-09-06T14:46:22.694Z,12.80
2018-09-06T14:48:50.284Z,13.63
2018-09-06T14:51:17.891Z,12.30
2018-09-06T14:53:45.500Z,11.70
2018-09-06T14:56:13.108Z,11.67
2018-09-06T14:58:40.705Z,12.90
2018-09-06T15:01:08.619Z,13.00
2018-09-06T15:03:36.228Z,12.80
2018-09-06T15:06:03.837Z,12.80
2018-09-06T15:08:31.405Z,12.73
2018-09-06T15:10:58.972Z,13.20
2018-09-06T15:13:26.588Z,12.10
2018-09-06T15:15:54.181Z,12.80
2018-09-06T15:18:21.795Z,12.23
2018-09-06T15:20:49.385Z,13.60
2018-09-06T15:23:16.988Z,13.57
2018-09-06T15:25:44.612Z,13.50
2018-09-06T15:28:12.259Z,13.70
2018-09-06T15:30:39.881Z,12.60
2018-09-06T15:33:07.472Z,13.20
2018-09-06T15:35:35.045Z,12.83
2018-09-06T15:38:02.670Z,13.63
2018-09-06T15:40:30.251Z,12.83
2018-09-06T15:42:57.834Z,12.80
2018-09-06T15:45:25.465Z,12.70
2018-09-06T15:47:53.169Z,13.70
2018-09-06T15:50:20.774Z,12.80
2018-09-06T15:52:48.381Z,12.90
2018-09-06T15:55:15.987Z,14.37
2018-09-06T15:57:43.590Z,14.30
2018-09-06T16:00:11.168Z,13.10
2018-09-06T16:02:38.807Z,14.00
2018-09-06T16:05:06.440Z,12.77
2018-09-06T16:07:34.119Z,14.87
2018-09-06T16:10:01.785Z,13.70
2018-09-06T16:12:29.492Z,14.30
2018-09-06T16:14:57.056Z,14.33
2018-09-06T16:17:24.644Z,15.43
2018-09-06T16:19:52.241Z,13.67
2018-09-06T16:22:19.824Z,14.40
2018-09-06T16:24:47.398Z,14.30
2018-09-06T16:27:15.089Z,14.13
2018-09-06T16:29:42.769Z,18.37
2018-09-06T16:32:10.346Z,15.67
2018-09-06T16:34:38.014Z,15.10
2018-09-06T16:37:05.658Z,15.83
2018-09-06T16:39:33.245Z,14.17
2018-09-06T16:42:00.805Z,15.97
2018-09-06T16:44:28.370Z,17.93
2018-09-06T16:46:55.964Z,14.07
2018-09-06T16:49:23.610Z,14.97
2018-09-06T16:51:51.224Z,14.33
2018-09-06T16:54:18.791Z,15.53
2018-09-06T16:56:46.387Z,14.57
2018-09-06T16:59:13.989Z,14.57
2018-09-06T17:01:41.588Z,15.07
2018-09-06T17:04:09.212Z,15.77
2018-09-06T17:06:36.823Z,14.50
2018-09-06T17:09:05.745Z,15.10
2018-09-06T17:11:33.466Z,14.50
2018-09-06T17:14:01.086Z,16.00
2018-09-06T17:16:28.710Z,15.60
2018-09-06T17:18:56.308Z,15.30
2018-09-06T17:21:23.907Z,14.27
2018-09-06T17:23:51.515Z,15.70
2018-09-06T17:26:19.196Z,14.87
2018-09-06T17:28:46.715Z,14.07
2018-09-06T17:31:14.333Z,15.70
2018-09-06T17:33:41.946Z,14.60
2018-09-06T17:36:09.551Z,15.67
2018-09-06T17:38:37.136Z,14.93
2018-09-06T17:41:04.831Z,15.60
2018-09-06T17:43:32.445Z,15.50
2018-09-06T17:46:00.083Z,14.97
2018-09-06T17:48:27.697Z,14.87
2018-09-06T17:50:55.311Z,16.50
2018-09-06T17:53:22.985Z,15.30
2018-09-06T17:55:50.605Z,15.20
2018-09-06T17:58:18.210Z,16.87
2018-09-06T18:00:48.877Z,17.07
2018-09-06T18:03:16.528Z,17.70
2018-09-06T18:05:44.179Z,17.17
2018-09-06T18:08:11.809Z,17.63
2018-09-06T18:10:39.413Z,15.60
2018-09-06T18:13:07.012Z,15.03
2018-09-06T18:15:34.598Z,16.00
2018-09-06T18:18:02.227Z,17.07
2018-09-06T18:20:29.845Z,16.47
2018-09-06T18:22:57.419Z,18.40
2018-09-06T18:25:25.128Z,16.80
2018-09-06T18:27:52.744Z,17.97
2018-09-06T18:30:20.465Z,17.37
2018-09-06T18:32:48.127Z,17.33
2018-09-06T18:35:15.757Z,16.77
2018-09-06T18:37:43.380Z,15.47
2018-09-06T18:40:11.100Z,15.10
2018-09-06T18:42:38.833Z,16.40
2018-09-06T18:45:06.504Z,15.87
2018-09-06T18:47:34.549Z,16.30
2018-09-06T18:50:02.147Z,16.17
2018-09-06T18:52:29.785Z,16.67
2018-09-06T18:54:57.729Z,17.30
2018-09-06T18:57:25.380Z,16.90
2018-09-06T18:59:53.000Z,18.43
2018-09-06T19:02:20.640Z,18.00
2018-09-06T19:04:48.211Z,17.97
2018-09-06T19:07:15.817Z,18.87
2018-09-06T19:09:43.441Z,19.40
2018-09-06T19:12:11.079Z,18.00
2018-09-06T19:14:38.677Z,18.57
2018-09-06T19:17:06.313Z,19.40
2018-09-06T19:19:33.992Z,18.30
2018-09-06T19:22:01.693Z,18.80
2018-09-06T19:24:29.300Z,16.93
2018-09-06T19:26:56.985Z,17.13
2018-09-06T19:29:24.632Z,18.10
2018-09-06T19:31:52.311Z,18.57
2018-09-06T19:34:19.830Z,16.80
2018-09-06T19:36:47.430Z,17.00
2018-09-06T19:39:15.171Z,17.57
2018-09-06T19:41:42.953Z,17.00
2018-09-06T19:44:10.561Z,17.83
2018-09-06T19:46:38.193Z,16.40
2018-09-06T19:49:06.279Z,17.70
2018-09-06T19:51:33.933Z,18.00
2018-09-06T19:54:01.713Z,17.67
2018-09-06T19:56:29.717Z,16.93
2018-09-06T19:58:57.366Z,16.47
2018-09-06T20:01:24.964Z,17.80
2018-09-06T20:03:52.581Z,17.00
2018-09-06T20:06:20.177Z,17.67
2018-09-06T20:08:47.799Z,17.97
2018-09-06T20:11:15.481Z,17.20
2018-09-06T20:13:43.097Z,18.17
2018-09-06T20:16:12.467Z,17.80
2018-09-06T20:18:40.420Z,17.27
2018-09-06T20:21:07.990Z,17.20
2018-09-06T20:23:35.585Z,18.00
2018-09-06T20:26:03.298Z,16.73
2018-09-06T20:28:31.177Z,20.80
2018-09-06T20:30:58.763Z,20.67
2018-09-06T20:33:26.346Z,19.03
2018-09-06T20:35:53.997Z,17.43
2018-09-06T20:38:22.146Z,16.70
2018-09-06T20:40:52.454Z,18.20
2018-09-06T20:43:20.258Z,19.10
2018-09-06T20:45:47.920Z,18.37
2018-09-06T20:48:15.695Z,18.97
2018-09-06T20:50:44.317Z,18.80
2018-09-06T20:53:11.999Z,18.63
2018-09-06T20:55:39.689Z,17.90
2018-09-06T20:58:07.298Z,17.70
2018-09-06T21:00:34.899Z,18.07
2018-09-06T21:03:02.609Z,17.73
2018-09-06T21:05:30.213Z,19.10
2018-09-06T21:07:57.859Z,17.13
2018-09-06T21:10:25.433Z,18.60
2018-09-06T21:12:53.065Z,18.33
2018-09-06T21:15:20.692Z,18.07
2018-09-06T21:17:48.301Z,20.30
2018-09-06T21:20:15.911Z,19.20
2018-09-06T21:22:43.510Z,19.50
2018-09-06T21:25:11.135Z,19.53
2018-09-06T21:27:38.746Z,18.53
2018-09-06T21:30:06.604Z,18.90
2018-09-06T21:32:34.068Z,19.00
2018-09-06T21:35:01.650Z,19.70
2018-09-06T21:37:29.311Z,18.03
2018-09-06T21:39:57.003Z,20.50
2018-09-06T21:42:24.591Z,19.03
2018-09-06T21:44:52.172Z,19.67
2018-09-06T21:47:19.741Z,19.30
2018-09-06T21:49:47.329Z,19.17
2018-09-06T21:52:14.919Z,18.17
2018-09-06T21:54:42.501Z,17.13
2018-09-06T21:57:10.095Z,17.47
2018-09-06T21:59:37.666Z,16.60
2018-09-06T22:02:05.321Z,17.87
2018-09-06T22:04:32.930Z,17.30
2018-09-06T22:07:00.536Z,17.73
2018-09-06T22:09:28.168Z,17.37
2018-09-06T22:11:55.762Z,17.23
2018-09-06T22:14:23.634Z,16.50
2018-09-06T22:16:51.277Z,16.40
2018-09-06T22:19:18.845Z,17.67
2018-09-06T22:21:46.428Z,17.53
2018-09-06T22:24:14.004Z,17.33
2018-09-06T22:26:41.608Z,16.87
2018-09-06T22:29:09.245Z,15.93
2018-09-06T22:31:36.825Z,16.57
2018-09-06T22:34:04.422Z,15.83
2018-09-06T22:36:31.990Z,16.47
2018-09-06T22:38:59.558Z,15.50
2018-09-06T22:41:27.151Z,16.20
2018-09-06T22:43:54.752Z,15.90
2018-09-06T22:46:22.381Z,17.10
2018-09-06T22:48:50.065Z,16.63
2018-09-06T22:51:17.635Z,16.80
2018-09-06T22:53:45.213Z,17.70
2018-09-06T22:56:12.776Z,17.37
2018-09-06T22:58:40.344Z,16.10
2018-09-06T23:01:07.909Z,17.67
2018-09-06T23:03:41.384Z,15.90
2018-09-06T23:06:08.965Z,18.10
2018-09-06T23:08:36.915Z,16.93
2018-09-06T23:11:04.521Z,15.57
2018-09-06T23:13:32.117Z,16.40
2018-09-06T23:15:59.731Z,15.90
2018-09-06T23:18:27.321Z,16.23
2018-09-06T23:20:54.978Z,16.00
2018-09-06T23:23:22.662Z,14.93
2018-09-06T23:25:50.261Z,16.07
2018-09-06T23:28:17.827Z,15.10
2018-09-06T23:30:45.426Z,16.20
2018-09-06T23:33:13.003Z,15.60
2018-09-06T23:35:44.224Z,15.80
2018-09-06T23:38:11.781Z,16.03
2018-09-06T23:40:39.708Z,16.00
2018-09-06T23:43:07.749Z,15.47
2018-09-06T23:45:35.337Z,15.90
2018-09-06T23:48:02.933Z,15.93
2018-09-06T23:50:30.483Z,15.70
2018-09-06T23:52:58.064Z,15.80
2018-09-06T23:55:25.645Z,16.50
2018-09-06T23:57:53.209Z,16.00
